Hidden Timber, South Dakota
Current Conditions -  °F | °C
As of 8:52 AM on Monday 22 Dec 2014 (Local Time) from KVTN Reporting Station
Overcast Overcast  
Wind Chill: 31°   Ceiling: 6000
Heat Index: 38°   Visibility: 10mi
Dew Point: 31°   Wind: 9mph
Humidity: 76%   Direction: 280°W
Pressure: 29.52"   Gusts: NA
Location:  43.1909°N, 100.475°W
Report Text: KVTN 221452Z AUTO 28008KT 10SM SCT041 BKN060 OVC100 03/M01 A2952 RMK AO2 SLP013 T00331006 51006
Loading
Personal Weather Stations






























Interactive Weather Map New forecast layout! Learn more

10-Day Weather Forecast

Advertisements
Track Severe Weather on mobile